JNA436 RKPC-RKTH
Flight info
| Callsign | JNA436 |
|---|---|
| Flight time | 0h 42m |
| Altitude | 19000 |
| Route | AKPON1W AKPON Y571 PSN Y744 APARU PUDEN1 |
| Aircraft | B738/M-SDE2E3FGHIRWXY/LB1 |
Departure
| Time | 2026-04-30 11:13 |
|---|---|
| Airport | Jeju International Airport (RKPC) |
Arrival
| Time | 2026-04-30 11:55 |
|---|---|
| Airport | Pohang Airport (G-815/K-3) (RKTH) |
| Time | Latitude | Longitude | Altitude | Speed | Heading |
|---|---|---|---|---|---|
| 2026-04-30 10:58 | 33.50819 | 126.49030 | 94 ft | 0 kts | 329° |
| 2026-04-30 11:09 | 33.50843 | 126.49013 | 95 ft | 13 kts | 329° |
| 2026-04-30 11:09 | 33.50911 | 126.49009 | 93 ft | 9 kts | 51° |
| 2026-04-30 11:09 | 33.50967 | 126.49116 | 94 ft | 22 kts | 61° |
| 2026-04-30 11:10 | 33.51045 | 126.49273 | 93 ft | 22 kts | 60° |
| 2026-04-30 11:10 | 33.51145 | 126.49468 | 91 ft | 32 kts | 58° |
| 2026-04-30 11:10 | 33.51258 | 126.49682 | 93 ft | 29 kts | 59° |
| 2026-04-30 11:10 | 33.51371 | 126.49822 | 93 ft | 21 kts | 352° |
| 2026-04-30 11:11 | 33.51456 | 126.49707 | 92 ft | 20 kts | 258° |
| 2026-04-30 11:11 | 33.51439 | 126.49666 | 92 ft | 0 kts | 237° |
| 2026-04-30 11:12 | 33.51438 | 126.49664 | 95 ft | 3 kts | 237° |
| 2026-04-30 11:12 | 33.51356 | 126.49507 | 91 ft | 52 kts | 239° |
| 2026-04-30 11:12 | 33.51056 | 126.48913 | 92 ft | 114 kts | 238° |
| 2026-04-30 11:12 | 33.50542 | 126.47935 | 157 ft | 156 kts | 241° |
| 2026-04-30 11:13 | 33.49957 | 126.46792 | 656 ft | 163 kts | 246° |
| 2026-04-30 11:13 | 33.49424 | 126.45595 | 1293 ft | 166 kts | 246° |
| 2026-04-30 11:13 | 33.48869 | 126.44349 | 1853 ft | 174 kts | 246° |
| 2026-04-30 11:13 | 33.48174 | 126.43031 | 2113 ft | 200 kts | 241° |
| 2026-04-30 11:14 | 33.47364 | 126.41571 | 2312 ft | 221 kts | 241° |
| 2026-04-30 11:14 | 33.46497 | 126.39964 | 2525 ft | 239 kts | 242° |
| 2026-04-30 11:14 | 33.45573 | 126.38209 | 2792 ft | 255 kts | 241° |
| 2026-04-30 11:14 | 33.44619 | 126.36378 | 3414 ft | 261 kts | 241° |
| 2026-04-30 11:15 | 33.43576 | 126.34586 | 4141 ft | 266 kts | 227° |
| 2026-04-30 11:15 | 33.41977 | 126.33497 | 4828 ft | 275 kts | 194° |
| 2026-04-30 11:15 | 33.40063 | 126.33414 | 5571 ft | 278 kts | 175° |
| 2026-04-30 11:15 | 33.38137 | 126.33754 | 6305 ft | 281 kts | 172° |
| 2026-04-30 11:16 | 33.36211 | 126.34153 | 7092 ft | 280 kts | 173° |
| 2026-04-30 11:16 | 33.34288 | 126.34538 | 7868 ft | 280 kts | 173° |
| 2026-04-30 11:16 | 33.32386 | 126.35044 | 8656 ft | 283 kts | 159° |
| 2026-04-30 11:16 | 33.30799 | 126.36466 | 9399 ft | 292 kts | 130° |
| 2026-04-30 11:17 | 33.29929 | 126.38682 | 10141 ft | 302 kts | 102° |
| 2026-04-30 11:17 | 33.29930 | 126.41268 | 10487 ft | 323 kts | 85° |
| 2026-04-30 11:17 | 33.30250 | 126.43992 | 10659 ft | 346 kts | 82° |
| 2026-04-30 11:17 | 33.30644 | 126.46928 | 10822 ft | 368 kts | 82° |
| 2026-04-30 11:18 | 33.31047 | 126.50035 | 11076 ft | 385 kts | 83° |
| 2026-04-30 11:18 | 33.31807 | 126.56511 | 12140 ft | 398 kts | 84° |
| 2026-04-30 11:18 | 33.32452 | 126.59758 | 12705 ft | 407 kts | 67° |
| 2026-04-30 11:19 | 33.33924 | 126.62634 | 13349 ft | 412 kts | 55° |
| 2026-04-30 11:19 | 33.35563 | 126.65469 | 13969 ft | 417 kts | 56° |
| 2026-04-30 11:19 | 33.37190 | 126.68357 | 14523 ft | 422 kts | 57° |
| 2026-04-30 11:19 | 33.38826 | 126.71315 | 15083 ft | 428 kts | 58° |
| 2026-04-30 11:20 | 33.40472 | 126.74315 | 15654 ft | 433 kts | 58° |
| 2026-04-30 11:20 | 33.42143 | 126.77363 | 16175 ft | 440 kts | 58° |
| 2026-04-30 11:20 | 33.43814 | 126.80411 | 16714 ft | 445 kts | 58° |
| 2026-04-30 11:20 | 33.45528 | 126.83536 | 17276 ft | 450 kts | 58° |
| 2026-04-30 11:21 | 33.47259 | 126.86693 | 17820 ft | 455 kts | 58° |
| 2026-04-30 11:21 | 33.48999 | 126.89869 | 18503 ft | 454 kts | 59° |
| 2026-04-30 11:21 | 33.50734 | 126.93040 | 18882 ft | 456 kts | 59° |
| 2026-04-30 11:21 | 33.52479 | 126.96234 | 19012 ft | 464 kts | 59° |
| 2026-04-30 11:22 | 33.54275 | 126.99526 | 18987 ft | 477 kts | 59° |
| 2026-04-30 11:22 | 33.56115 | 127.02898 | 19003 ft | 487 kts | 59° |
| 2026-04-30 11:22 | 33.57990 | 127.06310 | 19010 ft | 491 kts | 57° |
| 2026-04-30 11:22 | 33.60098 | 127.09530 | 18999 ft | 488 kts | 50° |
| 2026-04-30 11:23 | 33.62379 | 127.12539 | 19017 ft | 486 kts | 47° |
| 2026-04-30 11:23 | 33.64702 | 127.15474 | 19005 ft | 484 kts | 47° |
| 2026-04-30 11:23 | 33.69294 | 127.21392 | 19000 ft | 484 kts | 49° |
| 2026-04-30 11:24 | 33.71524 | 127.24362 | 18978 ft | 485 kts | 49° |
| 2026-04-30 11:24 | 33.73770 | 127.27389 | 18992 ft | 486 kts | 49° |
| 2026-04-30 11:24 | 33.76029 | 127.30437 | 19012 ft | 487 kts | 50° |
| 2026-04-30 11:25 | 33.80522 | 127.36495 | 19001 ft | 488 kts | 49° |
| 2026-04-30 11:25 | 33.82783 | 127.39541 | 18996 ft | 487 kts | 49° |
| 2026-04-30 11:25 | 33.87293 | 127.45621 | 18990 ft | 486 kts | 50° |
| 2026-04-30 11:26 | 33.91784 | 127.51688 | 18997 ft | 485 kts | 50° |
| 2026-04-30 11:26 | 33.94026 | 127.54721 | 18993 ft | 484 kts | 50° |
| 2026-04-30 11:26 | 33.96257 | 127.57743 | 18989 ft | 484 kts | 50° |
| 2026-04-30 11:27 | 33.98512 | 127.60801 | 18985 ft | 483 kts | 50° |
| 2026-04-30 11:27 | 34.00742 | 127.63828 | 18986 ft | 483 kts | 50° |
| 2026-04-30 11:27 | 34.02968 | 127.66852 | 18987 ft | 483 kts | 50° |
| 2026-04-30 11:27 | 34.05169 | 127.69843 | 18994 ft | 483 kts | 50° |
| 2026-04-30 11:28 | 34.09629 | 127.75912 | 18974 ft | 482 kts | 50° |
| 2026-04-30 11:28 | 34.11855 | 127.78945 | 18978 ft | 482 kts | 50° |
| 2026-04-30 11:28 | 34.14083 | 127.81983 | 18981 ft | 482 kts | 50° |
| 2026-04-30 11:29 | 34.16315 | 127.85031 | 18983 ft | 483 kts | 50° |
| 2026-04-30 11:29 | 34.18509 | 127.88027 | 18998 ft | 482 kts | 50° |
| 2026-04-30 11:29 | 34.22958 | 127.94114 | 18978 ft | 482 kts | 50° |
| 2026-04-30 11:30 | 34.27389 | 128.00185 | 18967 ft | 481 kts | 50° |
| 2026-04-30 11:30 | 34.29607 | 128.03227 | 18971 ft | 481 kts | 50° |
| 2026-04-30 11:30 | 34.31822 | 128.06269 | 18984 ft | 480 kts | 50° |
| 2026-04-30 11:31 | 34.34003 | 128.09266 | 18984 ft | 480 kts | 50° |
| 2026-04-30 11:31 | 34.36212 | 128.12305 | 18974 ft | 480 kts | 50° |
| 2026-04-30 11:31 | 34.38417 | 128.15342 | 18970 ft | 480 kts | 50° |
| 2026-04-30 11:31 | 34.40620 | 128.18379 | 18971 ft | 479 kts | 50° |
| 2026-04-30 11:32 | 34.42817 | 128.21411 | 18959 ft | 479 kts | 50° |
| 2026-04-30 11:32 | 34.45015 | 128.24445 | 18968 ft | 479 kts | 50° |
| 2026-04-30 11:32 | 34.47219 | 128.27491 | 18973 ft | 479 kts | 50° |
| 2026-04-30 11:33 | 34.51598 | 128.33551 | 18973 ft | 480 kts | 50° |
| 2026-04-30 11:33 | 34.53829 | 128.36643 | 18969 ft | 480 kts | 50° |
| 2026-04-30 11:33 | 34.56006 | 128.39662 | 18972 ft | 481 kts | 50° |
| 2026-04-30 11:33 | 34.58206 | 128.42716 | 18980 ft | 481 kts | 50° |
| 2026-04-30 11:34 | 34.60411 | 128.45779 | 18978 ft | 480 kts | 50° |
| 2026-04-30 11:34 | 34.62611 | 128.48836 | 18972 ft | 479 kts | 50° |
| 2026-04-30 11:34 | 34.64802 | 128.51886 | 18961 ft | 478 kts | 50° |
| 2026-04-30 11:34 | 34.66961 | 128.54887 | 18961 ft | 477 kts | 50° |
| 2026-04-30 11:35 | 34.69139 | 128.57926 | 18964 ft | 476 kts | 50° |
| 2026-04-30 11:35 | 34.71317 | 128.60968 | 18973 ft | 476 kts | 50° |
| 2026-04-30 11:35 | 34.73487 | 128.63999 | 18968 ft | 476 kts | 51° |
| 2026-04-30 11:35 | 34.75663 | 128.67038 | 18940 ft | 476 kts | 50° |
| 2026-04-30 11:36 | 34.77838 | 128.70082 | 18954 ft | 475 kts | 50° |
| 2026-04-30 11:36 | 34.80007 | 128.73124 | 18954 ft | 475 kts | 50° |
| 2026-04-30 11:36 | 34.82173 | 128.76163 | 18961 ft | 475 kts | 50° |
| 2026-04-30 11:36 | 34.84342 | 128.79209 | 18966 ft | 475 kts | 50° |
| 2026-04-30 11:37 | 34.86504 | 128.82245 | 18970 ft | 475 kts | 51° |
| 2026-04-30 11:37 | 34.88669 | 128.85286 | 18967 ft | 474 kts | 51° |
| 2026-04-30 11:37 | 34.90951 | 128.88192 | 18954 ft | 475 kts | 42° |
| 2026-04-30 11:37 | 34.93583 | 128.90618 | 18945 ft | 475 kts | 32° |
| 2026-04-30 11:38 | 34.96477 | 128.92542 | 18947 ft | 474 kts | 22° |
| 2026-04-30 11:38 | 34.99558 | 128.93995 | 18977 ft | 474 kts | 19° |
| 2026-04-30 11:38 | 35.02661 | 128.95385 | 18969 ft | 474 kts | 19° |
| 2026-04-30 11:38 | 35.05718 | 128.96778 | 18962 ft | 475 kts | 20° |
| 2026-04-30 11:39 | 35.08805 | 128.98225 | 18957 ft | 475 kts | 20° |
| 2026-04-30 11:39 | 35.11893 | 128.99695 | 18958 ft | 475 kts | 20° |
| 2026-04-30 11:39 | 35.14922 | 129.01216 | 18937 ft | 462 kts | 23° |
| 2026-04-30 11:39 | 35.17827 | 129.02810 | 18611 ft | 452 kts | 25° |
| 2026-04-30 11:40 | 35.20625 | 129.04401 | 18145 ft | 447 kts | 25° |
| 2026-04-30 11:40 | 35.23435 | 129.06000 | 17547 ft | 442 kts | 25° |
| 2026-04-30 11:40 | 35.26216 | 129.07565 | 16971 ft | 437 kts | 25° |
| 2026-04-30 11:40 | 35.28971 | 129.09093 | 16441 ft | 430 kts | 25° |
| 2026-04-30 11:41 | 35.31685 | 129.10604 | 15906 ft | 425 kts | 25° |
| 2026-04-30 11:41 | 35.34363 | 129.12101 | 15392 ft | 421 kts | 25° |
| 2026-04-30 11:41 | 35.37021 | 129.13579 | 14843 ft | 417 kts | 25° |
| 2026-04-30 11:41 | 35.39658 | 129.15042 | 14329 ft | 414 kts | 25° |
| 2026-04-30 11:42 | 35.42264 | 129.16488 | 13817 ft | 410 kts | 25° |
| 2026-04-30 11:42 | 35.44855 | 129.17927 | 13268 ft | 406 kts | 25° |
| 2026-04-30 11:42 | 35.47417 | 129.19347 | 12727 ft | 402 kts | 25° |
| 2026-04-30 11:42 | 35.49946 | 129.20749 | 12295 ft | 395 kts | 25° |
| 2026-04-30 11:43 | 35.52446 | 129.22135 | 11724 ft | 392 kts | 25° |
| 2026-04-30 11:43 | 35.54919 | 129.23511 | 11236 ft | 388 kts | 25° |
| 2026-04-30 11:43 | 35.57342 | 129.24859 | 10962 ft | 379 kts | 25° |
| 2026-04-30 11:43 | 35.59710 | 129.26177 | 10788 ft | 367 kts | 25° |
| 2026-04-30 11:44 | 35.62002 | 129.27453 | 10623 ft | 355 kts | 25° |
| 2026-04-30 11:44 | 35.64197 | 129.28676 | 10463 ft | 337 kts | 25° |
| 2026-04-30 11:44 | 35.66254 | 129.29822 | 10329 ft | 320 kts | 25° |
| 2026-04-30 11:44 | 35.68234 | 129.30928 | 10198 ft | 304 kts | 25° |
| 2026-04-30 11:45 | 35.70120 | 129.31981 | 10060 ft | 290 kts | 25° |
| 2026-04-30 11:45 | 35.71921 | 129.32992 | 9904 ft | 279 kts | 25° |
| 2026-04-30 11:45 | 35.73680 | 129.33978 | 9635 ft | 277 kts | 24° |
| 2026-04-30 11:45 | 35.75443 | 129.34958 | 9383 ft | 278 kts | 24° |
| 2026-04-30 11:46 | 35.76626 | 129.35620 | 9211 ft | 284 kts | 26° |
| 2026-04-30 11:46 | 35.78573 | 129.37738 | 8645 ft | 288 kts | 64° |
| 2026-04-30 11:46 | 35.79124 | 129.39263 | 8348 ft | 286 kts | 70° |
| 2026-04-30 11:46 | 35.79845 | 129.41520 | 7816 ft | 287 kts | 70° |
| 2026-04-30 11:47 | 35.80570 | 129.43808 | 7289 ft | 287 kts | 69° |
| 2026-04-30 11:47 | 35.81304 | 129.46090 | 6760 ft | 286 kts | 69° |
| 2026-04-30 11:47 | 35.82043 | 129.48366 | 6239 ft | 285 kts | 68° |
| 2026-04-30 11:47 | 35.82784 | 129.50634 | 5689 ft | 284 kts | 67° |
| 2026-04-30 11:48 | 35.83519 | 129.52886 | 5149 ft | 282 kts | 67° |
| 2026-04-30 11:48 | 35.84377 | 129.55002 | 4894 ft | 269 kts | 56° |
| 2026-04-30 11:48 | 35.85417 | 129.56890 | 4678 ft | 261 kts | 54° |
| 2026-04-30 11:48 | 35.86425 | 129.58688 | 4472 ft | 249 kts | 54° |
| 2026-04-30 11:49 | 35.87380 | 129.60417 | 4282 ft | 239 kts | 54° |
| 2026-04-30 11:49 | 35.88290 | 129.62070 | 4117 ft | 233 kts | 51° |
| 2026-04-30 11:49 | 35.89523 | 129.63293 | 3955 ft | 224 kts | 19° |
| 2026-04-30 11:49 | 35.90992 | 129.63637 | 3815 ft | 207 kts | 2° |
| 2026-04-30 11:50 | 35.92394 | 129.63631 | 3664 ft | 195 kts | 359° |
| 2026-04-30 11:50 | 35.93715 | 129.63595 | 3509 ft | 185 kts | 359° |
| 2026-04-30 11:50 | 35.94976 | 129.63564 | 3360 ft | 176 kts | 359° |
| 2026-04-30 11:50 | 35.96164 | 129.63540 | 3240 ft | 172 kts | 360° |
| 2026-04-30 11:51 | 35.97359 | 129.63507 | 3146 ft | 172 kts | 356° |
| 2026-04-30 11:51 | 35.98443 | 129.62929 | 2965 ft | 176 kts | 312° |
| 2026-04-30 11:51 | 35.98823 | 129.61504 | 2833 ft | 180 kts | 276° |
| 2026-04-30 11:51 | 35.98936 | 129.59949 | 2669 ft | 183 kts | 277° |
| 2026-04-30 11:52 | 35.98976 | 129.58374 | 2465 ft | 182 kts | 272° |
| 2026-04-30 11:52 | 35.98960 | 129.56860 | 2291 ft | 171 kts | 271° |
| 2026-04-30 11:52 | 35.98941 | 129.55432 | 2146 ft | 161 kts | 271° |
| 2026-04-30 11:52 | 35.98925 | 129.54056 | 1961 ft | 158 kts | 271° |
| 2026-04-30 11:53 | 35.98910 | 129.52704 | 1835 ft | 156 kts | 271° |
| 2026-04-30 11:53 | 35.98895 | 129.51369 | 1624 ft | 156 kts | 271° |
| 2026-04-30 11:53 | 35.98881 | 129.50062 | 1376 ft | 149 kts | 270° |
| 2026-04-30 11:53 | 35.98847 | 129.48835 | 1256 ft | 141 kts | 269° |
| 2026-04-30 11:54 | 35.98835 | 129.47593 | 975 ft | 147 kts | 271° |
| 2026-04-30 11:54 | 35.98822 | 129.46349 | 753 ft | 143 kts | 269° |
| 2026-04-30 11:54 | 35.98816 | 129.45119 | 506 ft | 143 kts | 269° |
| 2026-04-30 11:54 | 35.98810 | 129.43912 | 260 ft | 143 kts | 269° |
| 2026-04-30 11:55 | 35.98797 | 129.42676 | 76 ft | 137 kts | 268° |
| 2026-04-30 11:55 | 35.98789 | 129.41681 | 79 ft | 96 kts | 270° |
| 2026-04-30 11:55 | 35.98785 | 129.41156 | 86 ft | 46 kts | 269° |
| 2026-04-30 11:55 | 35.98752 | 129.40920 | 85 ft | 12 kts | 160° |
| 2026-04-30 11:56 | 35.98690 | 129.40988 | 85 ft | 12 kts | 135° |
| 2026-04-30 11:56 | 35.98633 | 129.41064 | 87 ft | 13 kts | 126° |
| 2026-04-30 11:56 | 35.98621 | 129.41241 | 80 ft | 25 kts | 89° |
| 2026-04-30 11:56 | 35.98620 | 129.41452 | 78 ft | 24 kts | 90° |
| 2026-04-30 11:57 | 35.98622 | 129.41653 | 75 ft | 23 kts | 88° |
| 2026-04-30 11:57 | 35.98627 | 129.41846 | 72 ft | 23 kts | 88° |
| 2026-04-30 11:57 | 35.98628 | 129.42058 | 73 ft | 24 kts | 89° |
| 2026-04-30 11:57 | 35.98632 | 129.42281 | 70 ft | 29 kts | 89° |
| 2026-04-30 11:58 | 35.98633 | 129.42518 | 72 ft | 27 kts | 90° |
| 2026-04-30 11:58 | 35.98635 | 129.42771 | 72 ft | 34 kts | 89° |
| 2026-04-30 11:58 | 35.98638 | 129.43059 | 72 ft | 33 kts | 89° |
| 2026-04-30 11:58 | 35.98618 | 129.43257 | 67 ft | 16 kts | 150° |
| 2026-04-30 11:59 | 35.98517 | 129.43283 | 63 ft | 14 kts | 176° |
| 2026-04-30 11:59 | 35.98485 | 129.43286 | 64 ft | 0 kts | 177° |